createdAt,value
2023-04-26T00:02:12.523Z,2.80
2023-04-26T00:04:40.107Z,2.50
2023-04-26T00:07:09.396Z,2.43
2023-04-26T00:09:41.580Z,2.63
2023-04-26T00:12:08.408Z,2.60
2023-04-26T00:14:35.137Z,2.60
2023-04-26T00:17:06.880Z,2.53
2023-04-26T00:19:39.650Z,2.75
2023-04-26T00:22:08.813Z,2.50
2023-04-26T00:24:38.091Z,2.37
2023-04-26T00:27:09.166Z,2.63
2023-04-26T00:29:38.745Z,2.70
2023-04-26T00:32:07.900Z,2.83
2023-04-26T00:34:38.277Z,2.30
2023-04-26T00:37:05.584Z,2.78
2023-04-26T00:39:32.364Z,2.63
2023-04-26T00:41:59.150Z,3.23
2023-04-26T00:44:28.061Z,2.90
2023-04-26T00:46:57.352Z,2.60
2023-04-26T00:49:26.197Z,3.07
2023-04-26T00:51:53.516Z,3.07
2023-04-26T00:54:21.573Z,3.13
2023-04-26T00:56:53.286Z,3.00
2023-04-26T00:59:21.266Z,2.27
2023-04-26T01:01:49.152Z,2.70
2023-04-26T01:04:19.297Z,2.50
2023-04-26T01:06:46.428Z,2.77
2023-04-26T01:09:16.348Z,2.40
2023-04-26T01:11:46.681Z,2.83
2023-04-26T01:14:15.518Z,2.77
2023-04-26T01:16:42.292Z,2.93
2023-04-26T01:19:16.503Z,2.63
2023-04-26T01:21:43.344Z,2.53
2023-04-26T01:24:11.553Z,2.73
2023-04-26T01:26:46.803Z,2.80
2023-04-26T01:29:17.900Z,2.20
2023-04-26T01:31:45.490Z,2.50
2023-04-26T01:34:12.902Z,2.30
2023-04-26T01:36:40.141Z,2.33
2023-04-26T01:39:09.555Z,2.63
2023-04-26T01:41:36.681Z,2.00
2023-04-26T01:44:06.640Z,2.33
2023-04-26T01:46:33.435Z,2.53
2023-04-26T01:49:00.762Z,2.60
2023-04-26T01:51:29.849Z,2.63
2023-04-26T01:53:59.130Z,2.60
2023-04-26T01:56:28.431Z,2.65
2023-04-26T01:58:56.460Z,2.40
2023-04-26T02:01:23.286Z,2.73
2023-04-26T02:03:52.872Z,2.13
2023-04-26T02:06:21.930Z,2.47
2023-04-26T02:08:49.534Z,2.47
2023-04-26T02:11:16.411Z,1.97
2023-04-26T02:13:43.273Z,1.90
2023-04-26T02:16:16.493Z,2.10
2023-04-26T02:18:44.328Z,2.13
2023-04-26T02:21:13.716Z,2.17
2023-04-26T02:23:42.629Z,2.40
2023-04-26T02:26:09.414Z,2.20
2023-04-26T02:28:41.882Z,2.10
2023-04-26T02:31:09.320Z,2.20
2023-04-26T02:33:38.566Z,2.40
2023-04-26T02:36:06.320Z,2.35
2023-04-26T02:38:41.598Z,2.50
2023-04-26T02:41:08.324Z,2.10
2023-04-26T02:43:35.017Z,2.43
2023-04-26T02:46:01.708Z,2.13
2023-04-26T02:48:30.984Z,2.50
2023-04-26T02:50:57.733Z,2.07
2023-04-26T02:53:24.582Z,2.50
2023-04-26T02:55:53.650Z,2.43
2023-04-26T02:58:20.367Z,2.53
2023-04-26T03:00:48.287Z,2.23
2023-04-26T03:03:15.706Z,2.20
2023-04-26T03:05:42.765Z,2.33
2023-04-26T03:08:09.536Z,2.80
2023-04-26T03:10:36.272Z,2.47
2023-04-26T03:13:05.183Z,2.40
2023-04-26T03:15:31.935Z,2.20
2023-04-26T03:17:58.810Z,2.70
2023-04-26T03:20:25.985Z,3.10
2023-04-26T03:22:54.917Z,2.83
2023-04-26T03:25:21.681Z,2.40
2023-04-26T03:27:48.429Z,2.43
2023-04-26T03:30:15.857Z,2.47
2023-04-26T03:32:44.871Z,2.80
2023-04-26T03:35:11.968Z,3.67
2023-04-26T03:37:39.884Z,2.63
2023-04-26T03:40:11.270Z,2.90
2023-04-26T03:42:37.967Z,3.03
2023-04-26T03:45:07.979Z,2.97
2023-04-26T03:47:34.751Z,2.77
2023-04-26T03:50:03.712Z,3.30
2023-04-26T03:52:30.898Z,3.00
2023-04-26T03:54:57.607Z,3.40
2023-04-26T03:57:24.372Z,3.33
2023-04-26T03:59:51.268Z,3.43
2023-04-26T04:02:21.050Z,3.73
2023-04-26T04:04:47.897Z,4.40
2023-04-26T04:07:14.944Z,4.27
2023-04-26T04:09:41.655Z,5.97
2023-04-26T04:12:08.346Z,5.33
2023-04-26T04:14:35.116Z,4.97
2023-04-26T04:17:01.814Z,4.53
2023-04-26T04:19:30.813Z,7.73
2023-04-26T04:21:59.735Z,7.57
2023-04-26T04:24:28.596Z,6.53
2023-04-26T04:26:57.911Z,5.70
2023-04-26T04:29:24.636Z,5.33
2023-04-26T04:31:56.441Z,5.70
2023-04-26T04:34:26.169Z,4.10
2023-04-26T04:36:55.304Z,4.20
2023-04-26T04:39:22.033Z,3.87
2023-04-26T04:41:48.976Z,3.67
2023-04-26T04:44:16.554Z,4.40
2023-04-26T04:46:44.196Z,3.63
2023-04-26T04:49:12.480Z,3.87
2023-04-26T04:51:42.178Z,3.60
2023-04-26T04:54:14.984Z,3.80
2023-04-26T04:56:44.718Z,3.83
2023-04-26T04:59:11.924Z,3.80
2023-04-26T05:01:38.718Z,7.00
2023-04-26T05:04:06.982Z,5.33
2023-04-26T05:06:38.878Z,4.77
2023-04-26T05:09:07.996Z,3.90
2023-04-26T05:11:34.804Z,3.73
2023-04-26T05:14:02.259Z,3.73
2023-04-26T05:16:33.756Z,4.13
2023-04-26T05:19:00.546Z,3.70
2023-04-26T05:21:27.274Z,3.73
2023-04-26T05:23:58.344Z,4.00
2023-04-26T05:26:27.611Z,3.30
2023-04-26T05:28:54.305Z,3.60
2023-04-26T05:31:24.105Z,3.30
2023-04-26T05:33:51.680Z,3.30
2023-04-26T05:36:18.905Z,3.20
2023-04-26T05:38:45.727Z,3.10
2023-04-26T05:41:12.794Z,3.30
2023-04-26T05:43:40.407Z,3.47
2023-04-26T05:46:07.374Z,3.50
2023-04-26T05:48:36.528Z,3.37
2023-04-26T05:51:03.301Z,3.67
2023-04-26T05:53:33.680Z,4.10
2023-04-26T05:56:00.671Z,4.50
2023-04-26T05:58:28.043Z,3.60
2023-04-26T06:00:55.184Z,3.90
2023-04-26T06:03:22.502Z,4.03
2023-04-26T06:05:51.941Z,4.40
2023-04-26T06:08:18.725Z,3.87
2023-04-26T06:10:47.016Z,4.20
2023-04-26T06:13:16.179Z,3.53
2023-04-26T06:15:43.276Z,3.50
2023-04-26T06:18:10.013Z,4.00
2023-04-26T06:20:37.277Z,3.33
2023-04-26T06:23:04.706Z,3.40
2023-04-26T06:25:31.397Z,3.30
2023-04-26T06:27:58.830Z,2.70
2023-04-26T06:30:25.677Z,3.03
2023-04-26T06:32:52.693Z,2.63
2023-04-26T06:35:19.411Z,3.30
2023-04-26T06:37:46.498Z,3.40
2023-04-26T06:40:15.964Z,3.40
2023-04-26T06:42:45.158Z,3.10
2023-04-26T06:45:14.274Z,3.20
2023-04-26T06:47:43.378Z,3.00
2023-04-26T06:50:15.361Z,3.50
2023-04-26T06:52:42.121Z,3.33
2023-04-26T06:55:09.313Z,3.53
2023-04-26T06:57:35.997Z,3.07
2023-04-26T07:00:07.902Z,2.87
2023-04-26T07:02:35.249Z,2.87
2023-04-26T07:05:02.270Z,3.17
2023-04-26T07:07:29.013Z,3.00
2023-04-26T07:09:55.844Z,4.07
2023-04-26T07:12:24.925Z,4.43
2023-04-26T07:14:51.686Z,4.25
2023-04-26T07:17:18.433Z,4.37
2023-04-26T07:19:49.830Z,3.87
2023-04-26T07:22:16.527Z,4.43
2023-04-26T07:24:43.182Z,3.73
2023-04-26T07:27:10.306Z,2.80
2023-04-26T07:29:36.964Z,3.10
2023-04-26T07:32:03.934Z,2.70
2023-04-26T07:34:30.833Z,2.37
2023-04-26T07:36:57.529Z,2.50
2023-04-26T07:39:24.571Z,2.20
2023-04-26T07:41:51.241Z,1.77
2023-04-26T07:44:17.906Z,2.17
2023-04-26T07:46:47.254Z,2.53
2023-04-26T07:49:14.396Z,2.00
2023-04-26T07:51:46.342Z,2.55
2023-04-26T07:54:13.005Z,2.50
2023-04-26T07:56:39.714Z,1.77
2023-04-26T07:59:06.558Z,2.83
2023-04-26T08:01:33.577Z,2.97
2023-04-26T08:04:00.763Z,3.33
2023-04-26T08:06:29.291Z,2.37
2023-04-26T08:08:56.053Z,2.57
2023-04-26T08:11:25.002Z,2.77
2023-04-26T08:13:52.006Z,2.08
2023-04-26T08:16:19.105Z,2.40
2023-04-26T08:18:46.983Z,2.00
2023-04-26T08:21:14.473Z,2.20
2023-04-26T08:23:43.520Z,2.20
2023-04-26T08:26:12.496Z,2.07
2023-04-26T08:28:39.295Z,2.33
2023-04-26T08:31:08.356Z,2.33
2023-04-26T08:33:37.213Z,2.13
2023-04-26T08:36:08.744Z,2.70
2023-04-26T08:38:38.008Z,2.37
2023-04-26T08:41:05.773Z,2.13
2023-04-26T08:43:36.577Z,1.80
2023-04-26T08:46:11.714Z,2.30
2023-04-26T08:48:38.561Z,1.80
2023-04-26T08:51:06.200Z,1.93
2023-04-26T08:53:35.999Z,1.90
2023-04-26T08:56:06.876Z,2.33
2023-04-26T08:58:37.593Z,1.97
2023-04-26T09:01:05.921Z,2.17
2023-04-26T09:03:35.662Z,2.07
2023-04-26T09:06:06.118Z,2.07
2023-04-26T09:08:36.516Z,2.50
2023-04-26T09:11:04.050Z,1.90
2023-04-26T09:13:33.207Z,2.10
2023-04-26T09:16:04.831Z,2.07
2023-04-26T09:18:33.917Z,1.90
2023-04-26T09:21:08.790Z,1.93
2023-04-26T09:23:35.862Z,1.80
2023-04-26T09:26:18.062Z,1.60
2023-04-26T09:28:46.409Z,2.30
2023-04-26T09:31:48.620Z,2.10
2023-04-26T09:34:18.919Z,1.80
2023-04-26T09:36:52.696Z,1.70
2023-04-26T09:39:33.412Z,1.80
2023-04-26T09:42:00.578Z,1.30
2023-04-26T09:44:28.896Z,1.87
2023-04-26T09:46:59.170Z,1.50
2023-04-26T09:49:45.589Z,1.77
2023-04-26T09:52:12.620Z,1.50
2023-04-26T09:54:48.040Z,1.70
2023-04-26T09:57:16.643Z,1.43
2023-04-26T09:59:54.981Z,1.47
2023-04-26T10:02:30.502Z,1.20
2023-04-26T10:04:59.852Z,1.23
2023-04-26T10:07:27.240Z,1.70
2023-04-26T10:09:59.739Z,1.73
2023-04-26T10:12:27.434Z,1.60
2023-04-26T10:14:59.001Z,1.57
2023-04-26T10:17:25.790Z,1.60
2023-04-26T10:19:59.314Z,1.70
2023-04-26T10:22:35.325Z,1.80
2023-04-26T10:25:02.204Z,2.00
2023-04-26T10:27:44.432Z,1.77
2023-04-26T10:30:12.259Z,1.90
2023-04-26T10:33:02.054Z,2.27
2023-04-26T10:35:32.462Z,1.77
2023-04-26T10:38:02.245Z,2.10
2023-04-26T10:40:33.855Z,2.10
2023-04-26T10:43:15.460Z,2.33
2023-04-26T10:45:49.299Z,1.70
2023-04-26T10:48:28.024Z,3.67
2023-04-26T10:51:12.279Z,3.07
2023-04-26T10:53:47.811Z,2.93
2023-04-26T10:56:23.709Z,2.40
2023-04-26T10:59:30.698Z,1.67
2023-04-26T11:02:01.031Z,2.47
2023-04-26T11:04:51.014Z,3.30
2023-04-26T11:07:37.621Z,2.47
2023-04-26T11:10:10.182Z,1.80
2023-04-26T11:12:36.922Z,1.97
2023-04-26T11:15:03.871Z,2.30
2023-04-26T11:17:37.812Z,2.40
2023-04-26T11:20:16.268Z,2.00
2023-04-26T11:22:43.356Z,2.17
2023-04-26T11:25:13.248Z,2.00
2023-04-26T11:27:43.009Z,1.97
2023-04-26T11:30:12.790Z,2.00
2023-04-26T11:32:39.908Z,1.53
2023-04-26T11:35:07.522Z,1.40
2023-04-26T11:37:34.773Z,1.40
2023-04-26T11:40:04.188Z,1.80
2023-04-26T11:42:37.997Z,1.17
2023-04-26T11:45:07.134Z,1.60
2023-04-26T11:47:34.888Z,1.47
2023-04-26T11:50:01.952Z,1.70
2023-04-26T11:52:28.976Z,1.50
2023-04-26T11:55:08.302Z,2.63
2023-04-26T11:57:35.680Z,2.30
2023-04-26T12:00:14.244Z,2.00
2023-04-26T12:02:47.438Z,1.50
2023-04-26T12:05:28.365Z,1.70
2023-04-26T12:07:59.488Z,1.87
2023-04-26T12:10:28.142Z,1.80
2023-04-26T12:12:58.846Z,2.73
2023-04-26T12:15:35.041Z,2.27
2023-04-26T12:18:11.235Z,2.20
2023-04-26T12:20:42.921Z,2.33
2023-04-26T12:23:13.206Z,2.20
2023-04-26T12:25:41.874Z,2.93
2023-04-26T12:28:14.908Z,2.30
2023-04-26T12:30:41.819Z,2.37
2023-04-26T12:33:16.482Z,2.57
2023-04-26T12:35:44.783Z,2.07
2023-04-26T12:38:12.179Z,1.60
2023-04-26T12:40:39.248Z,1.50
2023-04-26T12:43:06.220Z,1.67
2023-04-26T12:45:32.985Z,1.50
2023-04-26T12:47:59.830Z,1.40
2023-04-26T12:50:27.596Z,1.60
2023-04-26T12:52:54.773Z,1.57
2023-04-26T12:55:24.157Z,2.83
2023-04-26T12:57:53.314Z,2.00
2023-04-26T13:00:21.682Z,2.30
2023-04-26T13:02:48.989Z,3.57
2023-04-26T13:05:15.933Z,2.10
2023-04-26T13:07:46.029Z,1.93
2023-04-26T13:10:14.089Z,1.60
2023-04-26T13:12:40.994Z,1.63
2023-04-26T13:15:10.806Z,1.60
2023-04-26T13:17:42.925Z,1.60
2023-04-26T13:20:10.158Z,1.73
2023-04-26T13:22:42.372Z,1.40
2023-04-26T13:25:15.657Z,1.30
2023-04-26T13:27:42.388Z,1.60
2023-04-26T13:30:09.672Z,1.90
2023-04-26T13:32:39.386Z,2.10
2023-04-26T13:35:07.441Z,1.70
2023-04-26T13:37:36.474Z,2.43
2023-04-26T13:40:06.127Z,2.13
2023-04-26T13:42:32.889Z,2.00
2023-04-26T13:45:01.699Z,1.87
2023-04-26T13:47:30.510Z,1.80
2023-04-26T13:49:57.525Z,3.57
2023-04-26T13:52:28.933Z,3.65
2023-04-26T13:54:56.010Z,2.13
2023-04-26T13:57:22.711Z,1.80
2023-04-26T13:59:49.499Z,3.00
2023-04-26T14:02:18.868Z,2.78
2023-04-26T14:04:48.296Z,1.93
2023-04-26T14:07:17.685Z,3.07
2023-04-26T14:09:46.733Z,3.00
2023-04-26T14:12:13.370Z,5.77
2023-04-26T14:14:40.112Z,5.50
2023-04-26T14:17:07.063Z,4.30
2023-04-26T14:19:33.726Z,4.17
2023-04-26T14:22:00.403Z,4.13
2023-04-26T14:24:29.244Z,3.10
2023-04-26T14:26:58.295Z,4.80
2023-04-26T14:29:25.128Z,3.53
2023-04-26T14:31:51.911Z,2.30
2023-04-26T14:34:18.663Z,2.47
2023-04-26T14:36:47.689Z,2.13
2023-04-26T14:39:16.774Z,1.27
2023-04-26T14:41:43.714Z,1.57
2023-04-26T14:44:10.553Z,1.30
2023-04-26T14:46:37.435Z,1.30
2023-04-26T14:49:08.856Z,1.37
2023-04-26T14:51:35.744Z,1.47
2023-04-26T14:54:02.444Z,2.27
2023-04-26T14:56:33.729Z,1.90
2023-04-26T14:59:01.564Z,2.57
2023-04-26T15:01:28.907Z,2.73
2023-04-26T15:03:59.365Z,2.73
2023-04-26T15:06:27.654Z,2.57
2023-04-26T15:08:59.898Z,2.10
2023-04-26T15:11:26.678Z,2.27
2023-04-26T15:13:53.297Z,1.70
2023-04-26T15:16:22.787Z,2.15
2023-04-26T15:18:49.518Z,2.10
2023-04-26T15:21:19.678Z,2.13
2023-04-26T15:23:46.583Z,3.20
2023-04-26T15:26:18.197Z,2.40
2023-04-26T15:28:44.849Z,2.50
2023-04-26T15:31:13.980Z,2.97
2023-04-26T15:33:41.082Z,6.13
2023-04-26T15:36:10.348Z,8.63
2023-04-26T15:38:37.399Z,9.93
2023-04-26T15:41:04.493Z,8.23
2023-04-26T15:43:35.833Z,5.63
2023-04-26T15:46:04.799Z,4.97
2023-04-26T15:48:31.609Z,4.38
2023-04-26T15:51:04.968Z,6.47
2023-04-26T15:53:33.898Z,7.53
2023-04-26T15:56:02.716Z,4.87
2023-04-26T15:58:31.988Z,7.25
2023-04-26T16:01:01.217Z,10.67
2023-04-26T16:03:28.623Z,8.67
2023-04-26T16:05:57.774Z,5.40
2023-04-26T16:08:39.494Z,4.30
2023-04-26T16:11:07.109Z,2.97
2023-04-26T16:13:36.190Z,4.73
2023-04-26T16:16:10.757Z,5.53
2023-04-26T16:18:40.867Z,5.60
2023-04-26T16:21:12.569Z,4.10
2023-04-26T16:23:45.223Z,5.27
2023-04-26T16:26:14.400Z,4.90
2023-04-26T16:28:41.095Z,6.00
2023-04-26T16:31:10.180Z,6.60
2023-04-26T16:33:36.877Z,3.63
2023-04-26T16:36:03.744Z,4.23
2023-04-26T16:38:33.001Z,13.30
2023-04-26T16:41:02.704Z,11.02
2023-04-26T16:43:30.700Z,11.03
2023-04-26T16:46:00.695Z,7.27
2023-04-26T16:48:34.187Z,5.40
2023-04-26T16:51:02.918Z,7.30
2023-04-26T16:53:31.240Z,7.60
2023-04-26T16:56:01.279Z,9.43
2023-04-26T16:58:30.395Z,11.97
2023-04-26T17:01:01.786Z,6.17
2023-04-26T17:03:28.731Z,5.90
2023-04-26T17:05:55.631Z,5.78
2023-04-26T17:08:24.586Z,4.40
2023-04-26T17:10:51.915Z,5.43
2023-04-26T17:13:24.178Z,7.60
2023-04-26T17:15:51.382Z,7.50
2023-04-26T17:18:18.370Z,6.70
2023-04-26T17:20:52.733Z,7.47
2023-04-26T17:23:19.897Z,7.80
2023-04-26T17:25:47.089Z,8.83
2023-04-26T17:28:16.388Z,11.77
2023-04-26T17:30:43.453Z,6.93
2023-04-26T17:33:12.429Z,5.97
2023-04-26T17:35:41.916Z,7.80
2023-04-26T17:38:10.872Z,8.67
2023-04-26T17:40:39.810Z,7.13
2023-04-26T17:43:08.965Z,8.40
2023-04-26T17:45:35.691Z,9.23
2023-04-26T17:48:02.535Z,8.23
2023-04-26T17:50:30.284Z,7.90
2023-04-26T17:52:57.118Z,7.57
2023-04-26T17:55:23.853Z,7.50
2023-04-26T17:57:55.434Z,6.60
2023-04-26T18:00:25.441Z,7.70
2023-04-26T18:02:58.124Z,7.27
2023-04-26T18:05:27.354Z,6.67
2023-04-26T18:07:53.995Z,5.70
2023-04-26T18:10:20.889Z,5.90
2023-04-26T18:12:49.931Z,5.97
2023-04-26T18:15:19.136Z,4.80
2023-04-26T18:17:45.952Z,3.58
2023-04-26T18:20:16.449Z,3.13
2023-04-26T18:22:45.402Z,2.33
2023-04-26T18:25:12.179Z,2.33
2023-04-26T18:27:38.947Z,2.00
2023-04-26T18:30:08.825Z,2.27
2023-04-26T18:32:38.015Z,1.80
2023-04-26T18:35:06.257Z,2.13
2023-04-26T18:37:37.885Z,1.83
2023-04-26T18:40:09.744Z,1.70
2023-04-26T18:42:38.755Z,1.57
2023-04-26T18:45:07.002Z,1.80
2023-04-26T18:47:34.012Z,1.80
2023-04-26T18:50:00.739Z,1.80
2023-04-26T18:52:27.572Z,1.80
2023-04-26T18:54:56.359Z,1.77
2023-04-26T18:57:24.235Z,1.80
2023-04-26T18:59:53.105Z,1.37
2023-04-26T19:02:19.840Z,1.93
2023-04-26T19:04:49.011Z,1.70
2023-04-26T19:07:19.493Z,2.30
2023-04-26T19:09:54.195Z,2.20
2023-04-26T19:12:21.604Z,2.30
2023-04-26T19:14:48.377Z,2.40
2023-04-26T19:17:17.460Z,2.50
2023-04-26T19:19:46.786Z,1.87
2023-04-26T19:22:13.546Z,2.20
2023-04-26T19:24:40.392Z,2.77
2023-04-26T19:27:09.572Z,2.40
2023-04-26T19:29:38.492Z,1.90
2023-04-26T19:32:07.025Z,2.13
2023-04-26T19:34:34.978Z,1.90
2023-04-26T19:37:01.811Z,2.03
2023-04-26T19:39:28.561Z,2.00
2023-04-26T19:41:57.536Z,1.90
2023-04-26T19:44:24.549Z,2.20
2023-04-26T19:46:53.758Z,2.00
2023-04-26T19:49:20.849Z,1.90
2023-04-26T19:51:52.219Z,1.70
2023-04-26T19:54:18.945Z,1.97
2023-04-26T19:56:48.084Z,1.83
2023-04-26T19:59:14.855Z,1.90
2023-04-26T20:01:41.720Z,2.00
2023-04-26T20:04:08.572Z,1.80
2023-04-26T20:06:36.422Z,2.03
2023-04-26T20:09:06.766Z,2.10
2023-04-26T20:11:33.707Z,1.80
2023-04-26T20:14:02.652Z,1.97
2023-04-26T20:16:29.429Z,2.00
2023-04-26T20:18:56.915Z,2.30
2023-04-26T20:21:29.055Z,2.30
2023-04-26T20:23:55.975Z,2.13
2023-04-26T20:26:22.860Z,2.23
2023-04-26T20:28:49.664Z,2.17
2023-04-26T20:31:16.301Z,2.13
2023-04-26T20:33:43.119Z,2.90
2023-04-26T20:36:09.791Z,2.07
2023-04-26T20:38:41.331Z,2.07
2023-04-26T20:41:08.026Z,2.20
2023-04-26T20:43:37.000Z,2.20
2023-04-26T20:46:06.186Z,2.43
2023-04-26T20:48:35.077Z,2.27
2023-04-26T20:51:04.308Z,2.10
2023-04-26T20:53:31.105Z,2.23
2023-04-26T20:55:58.128Z,2.47
2023-04-26T20:58:24.826Z,2.20
2023-04-26T21:00:55.198Z,2.27
2023-04-26T21:03:22.664Z,2.70
2023-04-26T21:05:50.023Z,2.13
2023-04-26T21:08:19.033Z,2.17
2023-04-26T21:10:47.819Z,2.40
2023-04-26T21:13:14.485Z,2.72
2023-04-26T21:15:41.648Z,2.20
2023-04-26T21:18:10.644Z,2.40
2023-04-26T21:20:39.807Z,2.10
2023-04-26T21:23:07.517Z,2.00
2023-04-26T21:25:36.811Z,1.80
2023-04-26T21:28:03.579Z,2.03
2023-04-26T21:30:30.321Z,2.10
2023-04-26T21:32:57.064Z,2.20
2023-04-26T21:35:23.907Z,1.80
2023-04-26T21:37:53.194Z,1.80
2023-04-26T21:40:22.031Z,2.07
2023-04-26T21:43:03.630Z,1.80
2023-04-26T21:45:31.034Z,2.07
2023-04-26T21:47:57.730Z,2.23
2023-04-26T21:50:27.120Z,1.80
2023-04-26T21:52:53.761Z,2.03
2023-04-26T21:55:20.550Z,1.83
2023-04-26T21:57:47.240Z,1.80
2023-04-26T22:00:14.199Z,2.07
2023-04-26T22:02:43.547Z,2.27
2023-04-26T22:05:10.902Z,1.90
2023-04-26T22:07:37.655Z,2.53
2023-04-26T22:10:07.295Z,2.00
2023-04-26T22:12:33.927Z,2.17
2023-04-26T22:15:00.850Z,2.30
2023-04-26T22:17:29.853Z,1.80
2023-04-26T22:19:56.634Z,1.80
2023-04-26T22:22:23.351Z,1.80
2023-04-26T22:24:50.845Z,1.70
2023-04-26T22:27:17.653Z,2.07
2023-04-26T22:29:49.279Z,1.90
2023-04-26T22:32:16.252Z,2.10
2023-04-26T22:34:43.906Z,2.23
2023-04-26T22:37:20.792Z,2.07
2023-04-26T22:39:48.845Z,1.83
2023-04-26T22:42:15.646Z,1.87
2023-04-26T22:44:42.484Z,1.93
2023-04-26T22:47:09.186Z,1.90
2023-04-26T22:49:36.056Z,2.03
2023-04-26T22:52:11.588Z,2.17
2023-04-26T22:54:41.103Z,1.83
2023-04-26T22:57:10.069Z,1.90
2023-04-26T22:59:36.831Z,2.10
2023-04-26T23:02:03.526Z,2.20
2023-04-26T23:04:30.278Z,1.97
2023-04-26T23:06:57.041Z,1.80
2023-04-26T23:09:23.753Z,1.70
2023-04-26T23:11:51.092Z,1.90
2023-04-26T23:14:19.763Z,2.27
2023-04-26T23:16:51.940Z,2.13
2023-04-26T23:19:21.452Z,1.90
2023-04-26T23:21:50.230Z,2.03
2023-04-26T23:24:17.003Z,1.90
2023-04-26T23:26:43.663Z,2.10
2023-04-26T23:29:10.855Z,1.77
2023-04-26T23:31:39.993Z,2.17
2023-04-26T23:34:06.737Z,1.83
2023-04-26T23:36:33.789Z,2.00
2023-04-26T23:39:00.583Z,1.97
2023-04-26T23:41:29.777Z,2.07
2023-04-26T23:43:56.466Z,1.80
2023-04-26T23:46:23.148Z,2.40
2023-04-26T23:48:52.361Z,1.90
2023-04-26T23:51:21.436Z,2.47
2023-04-26T23:53:48.072Z,2.10
2023-04-26T23:56:19.369Z,2.13
2023-04-26T23:58:48.269Z,1.90
